sensor_id;sensor_type;location;lat;lon;timestamp;temperature;humidity
13344;DHT22;6741;48.964;9.406;2022-12-07T00:00:51;3.20;99.90
13344;DHT22;6741;48.964;9.406;2022-12-07T00:03:18;3.30;99.90
13344;DHT22;6741;48.964;9.406;2022-12-07T00:05:45;3.30;99.90
13344;DHT22;6741;48.964;9.406;2022-12-07T00:08:12;3.20;99.90
13344;DHT22;6741;48.964;9.406;2022-12-07T00:10:41;3.20;99.90
13344;DHT22;6741;48.964;9.406;2022-12-07T00:13:08;3.20;99.90
13344;DHT22;6741;48.964;9.406;2022-12-07T00:15:35;3.20;99.90
13344;DHT22;6741;48.964;9.406;2022-12-07T00:18:02;3.10;99.90
13344;DHT22;6741;48.964;9.406;2022-12-07T00:20:29;3.10;99.90
13344;DHT22;6741;48.964;9.406;2022-12-07T00:22:56;3.20;99.90
13344;DHT22;6741;48.964;9.406;2022-12-07T00:25:23;3.10;99.90
13344;DHT22;6741;48.964;9.406;2022-12-07T00:27:53;3.10;99.90
13344;DHT22;6741;48.964;9.406;2022-12-07T00:30:22;3.10;99.90
13344;DHT22;6741;48.964;9.406;2022-12-07T00:32:49;3.10;99.90
13344;DHT22;6741;48.964;9.406;2022-12-07T00:35:16;3.10;99.90
13344;DHT22;6741;48.964;9.406;2022-12-07T00:37:43;3.10;99.90
13344;DHT22;6741;48.964;9.406;2022-12-07T00:40:11;3.00;99.90
13344;DHT22;6741;48.964;9.406;2022-12-07T00:42:38;3.00;99.90
13344;DHT22;6741;48.964;9.406;2022-12-07T00:45:08;2.90;99.90
13344;DHT22;6741;48.964;9.406;2022-12-07T00:47:35;2.90;99.90
13344;DHT22;6741;48.964;9.406;2022-12-07T00:50:03;2.90;99.90
13344;DHT22;6741;48.964;9.406;2022-12-07T00:52:30;2.80;99.90
13344;DHT22;6741;48.964;9.406;2022-12-07T00:54:57;2.80;99.90
13344;DHT22;6741;48.964;9.406;2022-12-07T00:57:24;2.80;99.90
13344;DHT22;6741;48.964;9.406;2022-12-07T00:59:51;2.90;99.90
13344;DHT22;6741;48.964;9.406;2022-12-07T01:02:22;2.80;99.90
13344;DHT22;6741;48.964;9.406;2022-12-07T01:04:49;2.90;99.90
13344;DHT22;6741;48.964;9.406;2022-12-07T01:07:16;2.90;99.90
13344;DHT22;6741;48.964;9.406;2022-12-07T01:09:43;2.80;99.90
13344;DHT22;6741;48.964;9.406;2022-12-07T01:12:10;2.80;99.90
13344;DHT22;6741;48.964;9.406;2022-12-07T01:14:37;2.80;99.90
13344;DHT22;6741;48.964;9.406;2022-12-07T01:17:04;2.80;99.90
13344;DHT22;6741;48.964;9.406;2022-12-07T01:19:32;2.80;99.90
13344;DHT22;6741;48.964;9.406;2022-12-07T01:21:59;2.90;99.90
13344;DHT22;6741;48.964;9.406;2022-12-07T01:24:26;2.80;99.90
13344;DHT22;6741;48.964;9.406;2022-12-07T01:26:53;2.90;99.90
13344;DHT22;6741;48.964;9.406;2022-12-07T01:29:20;2.80;99.90
13344;DHT22;6741;48.964;9.406;2022-12-07T01:31:48;2.80;99.90
13344;DHT22;6741;48.964;9.406;2022-12-07T01:34:16;2.80;99.90
13344;DHT22;6741;48.964;9.406;2022-12-07T01:36:44;2.90;99.90
13344;DHT22;6741;48.964;9.406;2022-12-07T01:39:11;2.80;99.90
13344;DHT22;6741;48.964;9.406;2022-12-07T01:41:40;2.70;99.90
13344;DHT22;6741;48.964;9.406;2022-12-07T01:44:12;2.80;99.90
13344;DHT22;6741;48.964;9.406;2022-12-07T01:46:41;2.80;99.90
13344;DHT22;6741;48.964;9.406;2022-12-07T01:49:11;2.70;99.90
13344;DHT22;6741;48.964;9.406;2022-12-07T01:51:40;2.70;99.90
13344;DHT22;6741;48.964;9.406;2022-12-07T01:54:11;2.70;99.90
13344;DHT22;6741;48.964;9.406;2022-12-07T01:56:42;2.70;99.90
13344;DHT22;6741;48.964;9.406;2022-12-07T01:59:13;2.60;99.90
13344;DHT22;6741;48.964;9.406;2022-12-07T02:01:41;2.70;99.90
13344;DHT22;6741;48.964;9.406;2022-12-07T02:04:08;2.70;99.90
13344;DHT22;6741;48.964;9.406;2022-12-07T02:06:37;2.70;99.90
13344;DHT22;6741;48.964;9.406;2022-12-07T02:09:04;2.70;99.90
13344;DHT22;6741;48.964;9.406;2022-12-07T02:11:33;2.70;99.90
13344;DHT22;6741;48.964;9.406;2022-12-07T02:14:00;2.70;99.90
13344;DHT22;6741;48.964;9.406;2022-12-07T02:16:32;2.70;99.90
13344;DHT22;6741;48.964;9.406;2022-12-07T02:19:20;2.70;99.90
13344;DHT22;6741;48.964;9.406;2022-12-07T02:21:53;2.60;99.90
13344;DHT22;6741;48.964;9.406;2022-12-07T02:24:35;2.70;99.90
13344;DHT22;6741;48.964;9.406;2022-12-07T02:27:29;2.70;99.90
13344;DHT22;6741;48.964;9.406;2022-12-07T02:30:05;2.70;99.90
13344;DHT22;6741;48.964;9.406;2022-12-07T02:32:40;2.80;99.90
13344;DHT22;6741;48.964;9.406;2022-12-07T02:35:12;2.70;99.90
13344;DHT22;6741;48.964;9.406;2022-12-07T02:37:43;2.70;99.90
13344;DHT22;6741;48.964;9.406;2022-12-07T02:40:18;2.70;99.90
13344;DHT22;6741;48.964;9.406;2022-12-07T02:42:49;2.60;99.90
13344;DHT22;6741;48.964;9.406;2022-12-07T02:45:22;2.60;99.90
13344;DHT22;6741;48.964;9.406;2022-12-07T02:47:51;2.60;99.90
13344;DHT22;6741;48.964;9.406;2022-12-07T02:50:20;2.60;99.90
13344;DHT22;6741;48.964;9.406;2022-12-07T02:52:48;2.60;99.90
13344;DHT22;6741;48.964;9.406;2022-12-07T02:55:18;2.60;99.90
13344;DHT22;6741;48.964;9.406;2022-12-07T02:57:58;2.60;99.90
13344;DHT22;6741;48.964;9.406;2022-12-07T03:00:37;2.70;99.90
13344;DHT22;6741;48.964;9.406;2022-12-07T03:03:10;2.60;99.90
13344;DHT22;6741;48.964;9.406;2022-12-07T03:05:51;2.70;99.90
13344;DHT22;6741;48.964;9.406;2022-12-07T03:08:25;2.70;99.90
13344;DHT22;6741;48.964;9.406;2022-12-07T03:10:58;2.60;99.90
13344;DHT22;6741;48.964;9.406;2022-12-07T03:13:30;2.60;99.90
13344;DHT22;6741;48.964;9.406;2022-12-07T03:16:04;2.70;99.90
13344;DHT22;6741;48.964;9.406;2022-12-07T03:18:36;2.60;99.90
13344;DHT22;6741;48.964;9.406;2022-12-07T03:21:08;2.50;99.90
13344;DHT22;6741;48.964;9.406;2022-12-07T03:23:39;2.50;99.90
13344;DHT22;6741;48.964;9.406;2022-12-07T03:26:09;2.50;99.90
13344;DHT22;6741;48.964;9.406;2022-12-07T03:28:42;2.40;99.90
13344;DHT22;6741;48.964;9.406;2022-12-07T03:31:14;2.40;99.90
13344;DHT22;6741;48.964;9.406;2022-12-07T03:33:48;2.40;99.90
13344;DHT22;6741;48.964;9.406;2022-12-07T03:36:21;2.40;99.90
13344;DHT22;6741;48.964;9.406;2022-12-07T03:38:56;2.40;99.90
13344;DHT22;6741;48.964;9.406;2022-12-07T03:41:26;2.40;99.90
13344;DHT22;6741;48.964;9.406;2022-12-07T03:43:54;2.50;99.90
13344;DHT22;6741;48.964;9.406;2022-12-07T03:46:30;2.40;99.90
13344;DHT22;6741;48.964;9.406;2022-12-07T03:49:06;2.40;99.90
13344;DHT22;6741;48.964;9.406;2022-12-07T03:51:40;2.40;99.90
13344;DHT22;6741;48.964;9.406;2022-12-07T03:54:14;2.30;99.90
13344;DHT22;6741;48.964;9.406;2022-12-07T03:56:44;2.40;99.90
13344;DHT22;6741;48.964;9.406;2022-12-07T03:59:13;2.30;99.90
13344;DHT22;6741;48.964;9.406;2022-12-07T04:01:43;2.30;99.90
13344;DHT22;6741;48.964;9.406;2022-12-07T04:04:10;2.30;99.90
13344;DHT22;6741;48.964;9.406;2022-12-07T04:06:37;2.40;99.90
13344;DHT22;6741;48.964;9.406;2022-12-07T04:09:04;2.40;99.90
13344;DHT22;6741;48.964;9.406;2022-12-07T04:11:31;2.40;99.90
13344;DHT22;6741;48.964;9.406;2022-12-07T04:13:58;2.40;99.90
13344;DHT22;6741;48.964;9.406;2022-12-07T04:16:44;2.40;99.90
13344;DHT22;6741;48.964;9.406;2022-12-07T04:19:11;2.30;99.90
13344;DHT22;6741;48.964;9.406;2022-12-07T04:21:38;2.30;99.90
13344;DHT22;6741;48.964;9.406;2022-12-07T04:24:06;2.30;99.90
13344;DHT22;6741;48.964;9.406;2022-12-07T04:26:33;2.30;99.90
13344;DHT22;6741;48.964;9.406;2022-12-07T04:29:00;2.30;99.90
13344;DHT22;6741;48.964;9.406;2022-12-07T04:31:27;2.30;99.90
13344;DHT22;6741;48.964;9.406;2022-12-07T04:33:55;2.40;99.90
13344;DHT22;6741;48.964;9.406;2022-12-07T04:36:22;2.30;99.90
13344;DHT22;6741;48.964;9.406;2022-12-07T04:38:49;2.30;99.90
13344;DHT22;6741;48.964;9.406;2022-12-07T04:41:16;2.30;99.90
13344;DHT22;6741;48.964;9.406;2022-12-07T04:43:43;2.30;99.90
13344;DHT22;6741;48.964;9.406;2022-12-07T04:46:10;2.30;99.90
13344;DHT22;6741;48.964;9.406;2022-12-07T04:48:37;2.30;99.90
13344;DHT22;6741;48.964;9.406;2022-12-07T04:51:05;2.40;99.90
13344;DHT22;6741;48.964;9.406;2022-12-07T04:53:32;2.30;99.90
13344;DHT22;6741;48.964;9.406;2022-12-07T04:56:00;2.30;99.90
13344;DHT22;6741;48.964;9.406;2022-12-07T04:58:27;2.30;99.90
13344;DHT22;6741;48.964;9.406;2022-12-07T05:00:54;2.30;99.90
13344;DHT22;6741;48.964;9.406;2022-12-07T05:03:21;2.30;99.90
13344;DHT22;6741;48.964;9.406;2022-12-07T05:05:49;2.30;99.90
13344;DHT22;6741;48.964;9.406;2022-12-07T05:08:17;2.20;99.90
13344;DHT22;6741;48.964;9.406;2022-12-07T05:10:44;2.20;99.90
13344;DHT22;6741;48.964;9.406;2022-12-07T05:13:11;2.20;99.90
13344;DHT22;6741;48.964;9.406;2022-12-07T05:15:38;2.20;99.90
13344;DHT22;6741;48.964;9.406;2022-12-07T05:18:05;2.30;99.90
13344;DHT22;6741;48.964;9.406;2022-12-07T05:20:32;2.30;99.90
13344;DHT22;6741;48.964;9.406;2022-12-07T05:22:59;2.30;99.90
13344;DHT22;6741;48.964;9.406;2022-12-07T05:25:27;2.30;99.90
13344;DHT22;6741;48.964;9.406;2022-12-07T05:27:55;2.30;99.90
13344;DHT22;6741;48.964;9.406;2022-12-07T05:30:22;2.20;99.90
13344;DHT22;6741;48.964;9.406;2022-12-07T05:32:49;2.20;99.90
13344;DHT22;6741;48.964;9.406;2022-12-07T05:35:16;1.70;99.90
13344;DHT22;6741;48.964;9.406;2022-12-07T05:37:43;1.40;99.90
13344;DHT22;6741;48.964;9.406;2022-12-07T05:40:12;1.20;99.90
13344;DHT22;6741;48.964;9.406;2022-12-07T05:42:40;1.50;99.90
13344;DHT22;6741;48.964;9.406;2022-12-07T05:45:09;1.80;99.90
13344;DHT22;6741;48.964;9.406;2022-12-07T05:47:37;1.90;99.90
13344;DHT22;6741;48.964;9.406;2022-12-07T05:50:06;2.10;99.90
13344;DHT22;6741;48.964;9.406;2022-12-07T05:52:33;2.10;99.90
13344;DHT22;6741;48.964;9.406;2022-12-07T05:55:00;2.20;99.90
13344;DHT22;6741;48.964;9.406;2022-12-07T05:57:27;2.10;99.90
13344;DHT22;6741;48.964;9.406;2022-12-07T05:59:56;2.10;99.90
13344;DHT22;6741;48.964;9.406;2022-12-07T06:02:22;2.10;99.90
13344;DHT22;6741;48.964;9.406;2022-12-07T06:04:49;2.20;99.90
13344;DHT22;6741;48.964;9.406;2022-12-07T06:07:16;2.20;99.90
13344;DHT22;6741;48.964;9.406;2022-12-07T06:09:43;2.20;99.90
13344;DHT22;6741;48.964;9.406;2022-12-07T06:12:11;2.20;99.90
13344;DHT22;6741;48.964;9.406;2022-12-07T06:14:57;2.10;99.90
13344;DHT22;6741;48.964;9.406;2022-12-07T06:17:24;2.10;99.90
13344;DHT22;6741;48.964;9.406;2022-12-07T06:19:51;2.10;99.90
13344;DHT22;6741;48.964;9.406;2022-12-07T06:22:18;2.10;99.90
13344;DHT22;6741;48.964;9.406;2022-12-07T06:24:45;2.10;99.90
13344;DHT22;6741;48.964;9.406;2022-12-07T06:27:12;2.10;99.90
13344;DHT22;6741;48.964;9.406;2022-12-07T06:29:39;2.10;99.90
13344;DHT22;6741;48.964;9.406;2022-12-07T06:32:07;2.00;99.90
13344;DHT22;6741;48.964;9.406;2022-12-07T06:34:34;2.10;99.90
13344;DHT22;6741;48.964;9.406;2022-12-07T06:37:01;2.10;99.90
13344;DHT22;6741;48.964;9.406;2022-12-07T06:39:28;2.10;99.90
13344;DHT22;6741;48.964;9.406;2022-12-07T06:41:56;2.20;99.90
13344;DHT22;6741;48.964;9.406;2022-12-07T06:44:23;2.10;99.90
13344;DHT22;6741;48.964;9.406;2022-12-07T06:46:50;2.00;99.90
13344;DHT22;6741;48.964;9.406;2022-12-07T06:49:19;2.00;99.90
13344;DHT22;6741;48.964;9.406;2022-12-07T06:51:46;2.00;99.90
13344;DHT22;6741;48.964;9.406;2022-12-07T06:54:14;2.00;99.90
13344;DHT22;6741;48.964;9.406;2022-12-07T06:56:41;2.00;99.90
13344;DHT22;6741;48.964;9.406;2022-12-07T06:59:08;2.00;99.90
13344;DHT22;6741;48.964;9.406;2022-12-07T07:01:36;2.00;99.90
13344;DHT22;6741;48.964;9.406;2022-12-07T07:04:03;2.00;99.90
13344;DHT22;6741;48.964;9.406;2022-12-07T07:06:31;2.00;99.90
13344;DHT22;6741;48.964;9.406;2022-12-07T07:08:59;2.00;99.90
13344;DHT22;6741;48.964;9.406;2022-12-07T07:11:26;2.00;99.90
13344;DHT22;6741;48.964;9.406;2022-12-07T07:13:52;2.10;99.90
13344;DHT22;6741;48.964;9.406;2022-12-07T07:16:22;2.00;99.90
13344;DHT22;6741;48.964;9.406;2022-12-07T07:18:49;2.00;99.90
13344;DHT22;6741;48.964;9.406;2022-12-07T07:21:16;2.00;99.90
13344;DHT22;6741;48.964;9.406;2022-12-07T07:23:45;2.00;99.90
13344;DHT22;6741;48.964;9.406;2022-12-07T07:26:12;2.00;99.90
13344;DHT22;6741;48.964;9.406;2022-12-07T07:28:39;1.90;99.90
13344;DHT22;6741;48.964;9.406;2022-12-07T07:31:06;1.90;99.90
13344;DHT22;6741;48.964;9.406;2022-12-07T07:33:33;2.00;99.90
13344;DHT22;6741;48.964;9.406;2022-12-07T07:36:00;2.00;99.90
13344;DHT22;6741;48.964;9.406;2022-12-07T07:38:27;2.10;99.90
13344;DHT22;6741;48.964;9.406;2022-12-07T07:40:55;2.10;99.90
13344;DHT22;6741;48.964;9.406;2022-12-07T07:43:22;2.20;99.90
13344;DHT22;6741;48.964;9.406;2022-12-07T07:45:49;2.20;99.90
13344;DHT22;6741;48.964;9.406;2022-12-07T07:48:16;2.20;99.90
13344;DHT22;6741;48.964;9.406;2022-12-07T07:50:43;2.20;99.90
13344;DHT22;6741;48.964;9.406;2022-12-07T07:53:10;2.20;99.90
13344;DHT22;6741;48.964;9.406;2022-12-07T07:55:37;2.20;99.90
13344;DHT22;6741;48.964;9.406;2022-12-07T07:58:05;2.30;99.90
13344;DHT22;6741;48.964;9.406;2022-12-07T08:00:32;2.20;99.90
13344;DHT22;6741;48.964;9.406;2022-12-07T08:02:59;2.30;99.90
13344;DHT22;6741;48.964;9.406;2022-12-07T08:05:26;2.30;99.90
13344;DHT22;6741;48.964;9.406;2022-12-07T08:07:53;2.30;99.90
13344;DHT22;6741;48.964;9.406;2022-12-07T08:10:20;2.40;99.90
13344;DHT22;6741;48.964;9.406;2022-12-07T08:12:47;2.40;99.90
13344;DHT22;6741;48.964;9.406;2022-12-07T08:15:32;2.40;99.90
13344;DHT22;6741;48.964;9.406;2022-12-07T08:17:59;2.50;99.90
13344;DHT22;6741;48.964;9.406;2022-12-07T08:20:26;2.50;99.90
13344;DHT22;6741;48.964;9.406;2022-12-07T08:22:53;2.50;99.90
13344;DHT22;6741;48.964;9.406;2022-12-07T08:25:20;2.70;99.90
13344;DHT22;6741;48.964;9.406;2022-12-07T08:27:49;2.60;99.90
13344;DHT22;6741;48.964;9.406;2022-12-07T08:30:17;2.70;99.90
13344;DHT22;6741;48.964;9.406;2022-12-07T08:32:46;2.70;99.90
13344;DHT22;6741;48.964;9.406;2022-12-07T08:35:13;2.70;99.90
13344;DHT22;6741;48.964;9.406;2022-12-07T08:37:41;2.70;99.90
13344;DHT22;6741;48.964;9.406;2022-12-07T08:40:10;2.80;99.90
13344;DHT22;6741;48.964;9.406;2022-12-07T08:42:40;2.80;99.90
13344;DHT22;6741;48.964;9.406;2022-12-07T08:45:10;2.80;99.90
13344;DHT22;6741;48.964;9.406;2022-12-07T08:47:42;2.80;99.90
13344;DHT22;6741;48.964;9.406;2022-12-07T08:50:12;2.80;99.90
13344;DHT22;6741;48.964;9.406;2022-12-07T08:52:40;2.80;99.90
13344;DHT22;6741;48.964;9.406;2022-12-07T08:55:09;3.00;99.90
13344;DHT22;6741;48.964;9.406;2022-12-07T08:57:38;3.00;99.90
13344;DHT22;6741;48.964;9.406;2022-12-07T09:00:06;3.00;99.90
13344;DHT22;6741;48.964;9.406;2022-12-07T09:02:33;3.00;99.90
13344;DHT22;6741;48.964;9.406;2022-12-07T09:05:00;3.00;99.90
13344;DHT22;6741;48.964;9.406;2022-12-07T09:07:30;3.00;99.90
13344;DHT22;6741;48.964;9.406;2022-12-07T09:09:58;3.00;99.90
13344;DHT22;6741;48.964;9.406;2022-12-07T09:12:25;3.10;99.90
13344;DHT22;6741;48.964;9.406;2022-12-07T09:14:52;3.20;99.90
13344;DHT22;6741;48.964;9.406;2022-12-07T09:17:19;3.30;99.90
13344;DHT22;6741;48.964;9.406;2022-12-07T09:19:46;3.20;99.90
13344;DHT22;6741;48.964;9.406;2022-12-07T09:22:13;3.30;99.90
13344;DHT22;6741;48.964;9.406;2022-12-07T09:24:41;3.30;99.90
13344;DHT22;6741;48.964;9.406;2022-12-07T09:27:09;3.30;99.90
13344;DHT22;6741;48.964;9.406;2022-12-07T09:29:35;3.40;99.90
13344;DHT22;6741;48.964;9.406;2022-12-07T09:32:03;3.30;99.90
13344;DHT22;6741;48.964;9.406;2022-12-07T09:34:30;3.40;99.90
13344;DHT22;6741;48.964;9.406;2022-12-07T09:36:57;3.40;99.90
13344;DHT22;6741;48.964;9.406;2022-12-07T09:39:26;3.60;99.90
13344;DHT22;6741;48.964;9.406;2022-12-07T09:41:54;3.60;99.90
13344;DHT22;6741;48.964;9.406;2022-12-07T09:44:24;3.60;99.90
13344;DHT22;6741;48.964;9.406;2022-12-07T09:46:51;3.60;99.90
13344;DHT22;6741;48.964;9.406;2022-12-07T09:49:20;3.60;99.90
13344;DHT22;6741;48.964;9.406;2022-12-07T09:52:00;3.60;99.90
13344;DHT22;6741;48.964;9.406;2022-12-07T09:54:28;3.50;99.90
13344;DHT22;6741;48.964;9.406;2022-12-07T09:56:58;3.50;99.90
13344;DHT22;6741;48.964;9.406;2022-12-07T09:59:25;3.50;99.90
13344;DHT22;6741;48.964;9.406;2022-12-07T10:01:52;3.50;99.90
13344;DHT22;6741;48.964;9.406;2022-12-07T10:04:22;3.50;99.90
13344;DHT22;6741;48.964;9.406;2022-12-07T10:06:50;3.60;99.90
13344;DHT22;6741;48.964;9.406;2022-12-07T10:09:19;3.60;99.90
13344;DHT22;6741;48.964;9.406;2022-12-07T10:12:03;3.50;99.90
13344;DHT22;6741;48.964;9.406;2022-12-07T10:14:32;3.60;99.90
13344;DHT22;6741;48.964;9.406;2022-12-07T10:17:00;3.60;99.90
13344;DHT22;6741;48.964;9.406;2022-12-07T10:19:29;3.60;99.90
13344;DHT22;6741;48.964;9.406;2022-12-07T10:22:10;3.60;99.90
13344;DHT22;6741;48.964;9.406;2022-12-07T10:24:38;3.60;99.90
13344;DHT22;6741;48.964;9.406;2022-12-07T10:27:18;3.50;99.90
13344;DHT22;6741;48.964;9.406;2022-12-07T10:29:49;3.50;99.90
13344;DHT22;6741;48.964;9.406;2022-12-07T10:32:31;3.50;99.90
13344;DHT22;6741;48.964;9.406;2022-12-07T10:35:22;3.50;99.90
13344;DHT22;6741;48.964;9.406;2022-12-07T10:37:50;3.50;99.90
13344;DHT22;6741;48.964;9.406;2022-12-07T10:40:29;3.50;99.90
13344;DHT22;6741;48.964;9.406;2022-12-07T10:43:08;3.50;99.90
13344;DHT22;6741;48.964;9.406;2022-12-07T10:45:57;3.50;99.90
13344;DHT22;6741;48.964;9.406;2022-12-07T10:48:33;3.50;99.90
13344;DHT22;6741;48.964;9.406;2022-12-07T10:51:07;3.60;99.90
13344;DHT22;6741;48.964;9.406;2022-12-07T10:53:51;3.70;99.90
13344;DHT22;6741;48.964;9.406;2022-12-07T10:56:40;3.70;99.90
13344;DHT22;6741;48.964;9.406;2022-12-07T10:59:47;3.70;99.90
13344;DHT22;6741;48.964;9.406;2022-12-07T11:02:32;3.80;99.90
13344;DHT22;6741;48.964;9.406;2022-12-07T11:05:10;3.70;99.90
13344;DHT22;6741;48.964;9.406;2022-12-07T11:07:43;3.70;99.90
13344;DHT22;6741;48.964;9.406;2022-12-07T11:10:18;3.80;99.90
13344;DHT22;6741;48.964;9.406;2022-12-07T11:13:14;3.80;99.90
13344;DHT22;6741;48.964;9.406;2022-12-07T11:18:39;4.00;99.90
13344;DHT22;6741;48.964;9.406;2022-12-07T11:21:13;4.10;99.90
13344;DHT22;6741;48.964;9.406;2022-12-07T11:23:49;4.20;99.90
13344;DHT22;6741;48.964;9.406;2022-12-07T11:26:27;4.30;99.90
13344;DHT22;6741;48.964;9.406;2022-12-07T11:29:09;4.20;99.90
13344;DHT22;6741;48.964;9.406;2022-12-07T11:31:48;4.10;99.90
13344;DHT22;6741;48.964;9.406;2022-12-07T11:34:24;4.10;99.90
13344;DHT22;6741;48.964;9.406;2022-12-07T11:36:56;4.10;99.90
13344;DHT22;6741;48.964;9.406;2022-12-07T11:39:27;4.00;99.90
13344;DHT22;6741;48.964;9.406;2022-12-07T11:42:01;4.00;99.90
13344;DHT22;6741;48.964;9.406;2022-12-07T11:44:33;4.10;99.90
13344;DHT22;6741;48.964;9.406;2022-12-07T11:47:08;4.00;99.90
13344;DHT22;6741;48.964;9.406;2022-12-07T11:49:43;4.00;99.90
13344;DHT22;6741;48.964;9.406;2022-12-07T11:52:18;4.10;99.90
13344;DHT22;6741;48.964;9.406;2022-12-07T11:54:50;4.00;99.90
13344;DHT22;6741;48.964;9.406;2022-12-07T11:57:22;4.00;99.90
13344;DHT22;6741;48.964;9.406;2022-12-07T11:59:54;4.00;99.90
13344;DHT22;6741;48.964;9.406;2022-12-07T12:02:26;3.90;99.90
13344;DHT22;6741;48.964;9.406;2022-12-07T12:04:58;3.90;99.90
13344;DHT22;6741;48.964;9.406;2022-12-07T12:07:28;3.90;99.90
13344;DHT22;6741;48.964;9.406;2022-12-07T12:09:58;3.90;99.90
13344;DHT22;6741;48.964;9.406;2022-12-07T12:12:42;3.90;99.90
13344;DHT22;6741;48.964;9.406;2022-12-07T12:15:23;3.90;99.90
13344;DHT22;6741;48.964;9.406;2022-12-07T12:18:13;4.00;99.90
13344;DHT22;6741;48.964;9.406;2022-12-07T12:20:46;3.80;99.90
13344;DHT22;6741;48.964;9.406;2022-12-07T12:23:17;3.80;99.90
13344;DHT22;6741;48.964;9.406;2022-12-07T12:25:47;3.90;99.90
13344;DHT22;6741;48.964;9.406;2022-12-07T12:28:22;3.80;99.90
13344;DHT22;6741;48.964;9.406;2022-12-07T12:31:06;3.80;99.90
13344;DHT22;6741;48.964;9.406;2022-12-07T12:33:37;3.70;99.90
13344;DHT22;6741;48.964;9.406;2022-12-07T12:36:20;3.70;99.90
13344;DHT22;6741;48.964;9.406;2022-12-07T12:38:52;3.80;99.90
13344;DHT22;6741;48.964;9.406;2022-12-07T12:45:20;3.70;99.90
13344;DHT22;6741;48.964;9.406;2022-12-07T12:48:03;3.70;99.90
13344;DHT22;6741;48.964;9.406;2022-12-07T12:50:42;3.70;99.90
13344;DHT22;6741;48.964;9.406;2022-12-07T12:53:20;3.70;99.90
13344;DHT22;6741;48.964;9.406;2022-12-07T12:56:28;3.70;99.90
13344;DHT22;6741;48.964;9.406;2022-12-07T12:59:22;3.70;99.90
13344;DHT22;6741;48.964;9.406;2022-12-07T13:02:08;3.70;99.90
13344;DHT22;6741;48.964;9.406;2022-12-07T13:04:55;3.70;99.90
13344;DHT22;6741;48.964;9.406;2022-12-07T13:07:50;3.70;99.90
13344;DHT22;6741;48.964;9.406;2022-12-07T13:10:24;3.70;99.90
13344;DHT22;6741;48.964;9.406;2022-12-07T13:12:57;3.70;99.90
13344;DHT22;6741;48.964;9.406;2022-12-07T13:15:35;3.70;99.90
13344;DHT22;6741;48.964;9.406;2022-12-07T13:18:25;3.70;99.90
13344;DHT22;6741;48.964;9.406;2022-12-07T13:21:01;3.70;99.90
13344;DHT22;6741;48.964;9.406;2022-12-07T13:23:32;3.70;99.90
13344;DHT22;6741;48.964;9.406;2022-12-07T13:26:16;3.70;99.90
13344;DHT22;6741;48.964;9.406;2022-12-07T13:28:46;3.70;99.90
13344;DHT22;6741;48.964;9.406;2022-12-07T13:31:32;3.70;99.90
13344;DHT22;6741;48.964;9.406;2022-12-07T13:34:01;3.70;99.90
13344;DHT22;6741;48.964;9.406;2022-12-07T13:36:30;3.70;99.90
13344;DHT22;6741;48.964;9.406;2022-12-07T13:39:16;3.70;99.90
13344;DHT22;6741;48.964;9.406;2022-12-07T13:41:45;3.80;99.90
13344;DHT22;6741;48.964;9.406;2022-12-07T13:44:17;3.80;99.90
13344;DHT22;6741;48.964;9.406;2022-12-07T13:46:50;3.80;99.90
13344;DHT22;6741;48.964;9.406;2022-12-07T13:49:21;3.80;99.90
13344;DHT22;6741;48.964;9.406;2022-12-07T13:51:49;3.80;99.90
13344;DHT22;6741;48.964;9.406;2022-12-07T13:54:18;3.80;99.90
13344;DHT22;6741;48.964;9.406;2022-12-07T13:56:49;3.90;99.90
13344;DHT22;6741;48.964;9.406;2022-12-07T13:59:18;3.90;99.90
13344;DHT22;6741;48.964;9.406;2022-12-07T14:01:48;3.90;99.90
13344;DHT22;6741;48.964;9.406;2022-12-07T14:04:27;4.00;99.90
13344;DHT22;6741;48.964;9.406;2022-12-07T14:06:56;4.10;99.90
13344;DHT22;6741;48.964;9.406;2022-12-07T14:09:25;4.00;99.90
13344;DHT22;6741;48.964;9.406;2022-12-07T14:11:55;3.90;99.90
13344;DHT22;6741;48.964;9.406;2022-12-07T14:14:24;3.90;99.90
13344;DHT22;6741;48.964;9.406;2022-12-07T14:16:57;3.90;99.90
13344;DHT22;6741;48.964;9.406;2022-12-07T14:19:46;3.90;99.90
13344;DHT22;6741;48.964;9.406;2022-12-07T14:22:29;3.90;99.90
13344;DHT22;6741;48.964;9.406;2022-12-07T14:25:16;3.90;99.90
13344;DHT22;6741;48.964;9.406;2022-12-07T14:27:49;3.90;99.90
13344;DHT22;6741;48.964;9.406;2022-12-07T14:30:18;3.90;99.90
13344;DHT22;6741;48.964;9.406;2022-12-07T14:32:46;4.00;99.90
13344;DHT22;6741;48.964;9.406;2022-12-07T14:35:17;3.90;99.90
13344;DHT22;6741;48.964;9.406;2022-12-07T14:37:45;3.80;99.90
13344;DHT22;6741;48.964;9.406;2022-12-07T14:40:16;3.80;99.90
13344;DHT22;6741;48.964;9.406;2022-12-07T14:42:44;3.80;99.90
13344;DHT22;6741;48.964;9.406;2022-12-07T14:45:16;3.70;99.90
13344;DHT22;6741;48.964;9.406;2022-12-07T14:47:44;3.70;99.90
13344;DHT22;6741;48.964;9.406;2022-12-07T14:50:13;3.70;99.90
13344;DHT22;6741;48.964;9.406;2022-12-07T14:52:41;3.80;99.90
13344;DHT22;6741;48.964;9.406;2022-12-07T14:55:18;3.70;99.90
13344;DHT22;6741;48.964;9.406;2022-12-07T14:57:46;3.70;99.90
13344;DHT22;6741;48.964;9.406;2022-12-07T15:00:24;3.80;99.90
13344;DHT22;6741;48.964;9.406;2022-12-07T15:02:52;3.80;99.90
13344;DHT22;6741;48.964;9.406;2022-12-07T15:05:19;3.70;99.90
13344;DHT22;6741;48.964;9.406;2022-12-07T15:07:47;3.70;99.90
13344;DHT22;6741;48.964;9.406;2022-12-07T15:10:17;3.70;99.90
13344;DHT22;6741;48.964;9.406;2022-12-07T15:12:46;3.70;99.90
13344;DHT22;6741;48.964;9.406;2022-12-07T15:15:13;3.60;99.90
13344;DHT22;6741;48.964;9.406;2022-12-07T15:17:40;3.50;99.90
13344;DHT22;6741;48.964;9.406;2022-12-07T15:20:11;3.50;99.90
13344;DHT22;6741;48.964;9.406;2022-12-07T15:22:38;3.50;99.90
13344;DHT22;6741;48.964;9.406;2022-12-07T15:25:06;3.50;99.90
13344;DHT22;6741;48.964;9.406;2022-12-07T15:27:33;3.50;99.90
13344;DHT22;6741;48.964;9.406;2022-12-07T15:30:02;3.50;99.90
13344;DHT22;6741;48.964;9.406;2022-12-07T15:32:29;3.40;99.90
13344;DHT22;6741;48.964;9.406;2022-12-07T15:34:56;3.40;99.90
13344;DHT22;6741;48.964;9.406;2022-12-07T15:37:23;3.40;99.90
13344;DHT22;6741;48.964;9.406;2022-12-07T15:39:50;3.40;99.90
13344;DHT22;6741;48.964;9.406;2022-12-07T15:42:17;3.30;99.90
13344;DHT22;6741;48.964;9.406;2022-12-07T15:44:44;3.30;99.90
13344;DHT22;6741;48.964;9.406;2022-12-07T15:47:30;3.30;99.90
13344;DHT22;6741;48.964;9.406;2022-12-07T15:49:57;3.20;99.90
13344;DHT22;6741;48.964;9.406;2022-12-07T15:52:26;3.10;99.90
13344;DHT22;6741;48.964;9.406;2022-12-07T15:54:53;3.00;99.90
13344;DHT22;6741;48.964;9.406;2022-12-07T15:57:20;3.00;99.90
13344;DHT22;6741;48.964;9.406;2022-12-07T15:59:47;3.00;99.90
13344;DHT22;6741;48.964;9.406;2022-12-07T16:02:14;2.90;99.90
13344;DHT22;6741;48.964;9.406;2022-12-07T16:04:43;2.90;99.90
13344;DHT22;6741;48.964;9.406;2022-12-07T16:07:10;2.90;99.90
13344;DHT22;6741;48.964;9.406;2022-12-07T16:09:40;3.00;99.90
13344;DHT22;6741;48.964;9.406;2022-12-07T16:12:07;3.00;99.90
13344;DHT22;6741;48.964;9.406;2022-12-07T16:14:35;2.90;99.90
13344;DHT22;6741;48.964;9.406;2022-12-07T16:17:03;2.90;99.90
13344;DHT22;6741;48.964;9.406;2022-12-07T16:19:30;3.00;99.90
13344;DHT22;6741;48.964;9.406;2022-12-07T16:21:59;2.90;99.90
13344;DHT22;6741;48.964;9.406;2022-12-07T16:24:26;2.90;99.90
13344;DHT22;6741;48.964;9.406;2022-12-07T16:26:54;2.90;99.90
13344;DHT22;6741;48.964;9.406;2022-12-07T16:29:22;2.90;99.90
13344;DHT22;6741;48.964;9.406;2022-12-07T16:31:50;3.00;99.90